Lake Lincoln, Indiana
Current Conditions -  °F | °C
As of 6:15 AM on Friday 19 Dec 2014 (Local Time) from KHNB Reporting Station
Overcast Overcast  
Wind Chill: 19°   Ceiling: 5000
Heat Index: 27°   Visibility: 8mi
Dew Point: 21°   Wind: 7mph
Humidity: 80%   Direction: 20°NNE
Pressure: 30.29"   Gusts: NA
Location:  38.1283°N, 86.9862°W
Report Text: KHNB 191215Z AUTO 02006KT 8SM OVC050 M03/M06 A3029 RMK AO1
Loading
Personal Weather Stations






























Interactive Weather Map New forecast layout! Learn more

10-Day Weather Forecast

Advertisements
Track Severe Weather on mobile